Time;durP1;ratioP1;P1;durP2;ratioP2;P2;SDS_P1;SDS_P2;PMS_P1;PMS_P2;Temp;Humidity;BMP_temperature;BMP_pressure;BME280_temperature;BME280_humidity;BME280_pressure;Samples;Min_cycle;Max_cycle;Signal;HPM_P1;HPM_P2
2021/09/29 00:01:30;;;;;;;1.43;1.43;;;13.90;98.00;;;;;;5092227;28;20489;-68
2021/09/29 00:03:57;;;;;;;3.23;1.73;;;13.80;98.00;;;;;;5092166;28;20458;-69
2021/09/29 00:06:24;;;;;;;2.30;1.30;;;14.00;98.00;;;;;;5091981;28;20559;-68
2021/09/29 00:08:51;;;;;;;1.60;1.47;;;14.10;98.00;;;;;;5091916;28;20891;-69
2021/09/29 00:11:19;;;;;;;2.13;1.40;;;14.00;98.00;;;;;;5090675;28;20452;-69
2021/09/29 00:13:46;;;;;;;1.97;1.47;;;14.00;98.00;;;;;;5091898;28;20492;-68
2021/09/29 00:16:14;;;;;;;2.07;1.50;;;13.90;98.00;;;;;;5091715;28;20516;-68
2021/09/29 00:18:41;;;;;;;2.90;1.30;;;13.80;98.00;;;;;;5091756;28;20453;-69
2021/09/29 00:21:08;;;;;;;2.47;1.40;;;13.90;98.00;;;;;;5091795;28;20983;-69
2021/09/29 00:23:38;;;;;;;3.07;1.60;;;14.00;98.00;;;;;;5091010;28;20446;-69
2021/09/29 00:26:05;;;;;;;2.80;1.30;;;14.00;98.00;;;;;;5091537;28;20454;-68
2021/09/29 00:28:35;;;;;;;3.50;2.57;;;13.90;98.00;;;;;;5091281;28;20958;-68
2021/09/29 00:31:04;;;;;;;1.57;1.40;;;14.00;98.00;;;;;;5091649;28;20500;-68
2021/09/29 00:33:34;;;;;;;2.13;1.50;;;14.00;98.00;;;;;;5091673;28;20907;-69
2021/09/29 00:36:01;;;;;;;2.17;1.70;;;13.90;98.00;;;;;;5091521;28;20518;-68
2021/09/29 00:38:30;;;;;;;1.30;1.10;;;14.00;98.00;;;;;;5091494;28;20497;-69
2021/09/29 00:40:58;;;;;;;1.90;1.60;;;14.20;98.00;;;;;;5091522;28;20458;-68
2021/09/29 00:43:25;;;;;;;1.40;1.30;;;14.20;98.00;;;;;;5091445;28;20464;-69
2021/09/29 00:45:54;;;;;;;2.20;1.57;;;14.10;98.00;;;;;;5091374;28;20458;-69
2021/09/29 00:48:20;;;;;;;1.60;1.43;;;14.10;98.00;;;;;;5091383;28;20490;-68
2021/09/29 00:50:49;;;;;;;1.30;1.30;;;14.10;98.00;;;;;;5091359;28;20494;-68
2021/09/29 00:53:17;;;;;;;2.50;1.63;;;14.10;98.00;;;;;;5090947;28;20460;-68
2021/09/29 00:55:46;;;;;;;1.70;1.33;;;14.00;98.00;;;;;;5091147;28;20487;-68
2021/09/29 00:58:13;;;;;;;1.97;1.40;;;14.00;98.00;;;;;;5091039;28;20494;-69
2021/09/29 01:00:40;;;;;;;1.57;1.37;;;14.00;98.00;;;;;;5091221;28;20554;-68
2021/09/29 01:03:08;;;;;;;1.50;1.30;;;14.00;98.00;;;;;;5091109;28;20458;-69
2021/09/29 01:05:38;;;;;;;1.47;1.43;;;13.90;98.00;;;;;;5091589;28;20810;-68
2021/09/29 01:08:12;;;;;;;1.20;1.10;;;13.90;98.00;;;;;;5090178;28;20488;-68
2021/09/29 01:10:45;;;;;;;1.83;1.57;;;14.10;98.00;;;;;;5091414;28;20497;-68
2021/09/29 01:13:19;;;;;;;2.90;1.83;;;14.10;98.00;;;;;;5090245;28;20512;-69
2021/09/29 01:15:48;;;;;;;1.63;1.50;;;14.00;98.00;;;;;;5092280;28;20490;-68
2021/09/29 01:18:21;;;;;;;1.60;1.50;;;14.00;98.00;;;;;;5092077;28;20879;-68
2021/09/29 01:20:51;;;;;;;1.20;1.17;;;14.00;98.00;;;;;;5092083;28;20514;-68
2021/09/29 01:23:32;;;;;;;1.70;1.43;;;14.10;98.00;;;;;;5091853;28;20454;-68
2021/09/29 01:26:14;;;;;;;1.33;1.20;;;14.20;98.00;;;;;;5091057;28;20450;-69
2021/09/29 01:28:49;;;;;;;1.30;1.30;;;14.20;98.00;;;;;;5090917;28;20468;-69
2021/09/29 01:31:17;;;;;;;2.17;1.73;;;14.30;98.00;;;;;;5090560;28;20516;-66
2021/09/29 01:33:45;;;;;;;1.47;1.40;;;14.30;98.00;;;;;;5090962;28;21009;-66
2021/09/29 01:36:13;;;;;;;1.40;1.23;;;14.30;98.00;;;;;;5094519;28;20521;-67
2021/09/29 01:38:47;;;;;;;2.33;1.53;;;14.20;98.00;;;;;;5094979;28;20481;-66
2021/09/29 01:41:16;;;;;;;2.07;1.50;;;14.00;98.00;;;;;;5095106;28;20541;-66
2021/09/29 01:43:44;;;;;;;1.90;1.47;;;14.00;98.00;;;;;;5094793;28;20491;-66
2021/09/29 01:46:11;;;;;;;3.20;1.67;;;13.90;98.00;;;;;;5094794;28;20545;-66
2021/09/29 01:48:45;;;;;;;2.47;2.10;;;13.90;98.00;;;;;;5094897;28;20867;-67
2021/09/29 01:51:13;;;;;;;1.63;1.40;;;14.10;98.00;;;;;;5094554;28;20493;-66
2021/09/29 01:53:42;;;;;;;1.43;1.17;;;14.20;98.00;;;;;;5094520;28;20488;-66
2021/09/29 01:56:09;;;;;;;1.30;1.20;;;14.20;98.00;;;;;;5094610;28;20489;-66
2021/09/29 01:58:37;;;;;;;1.47;1.43;;;14.10;98.00;;;;;;5094602;28;20452;-66
2021/09/29 02:01:05;;;;;;;2.00;1.30;;;13.90;98.00;;;;;;5094680;28;20484;-67
2021/09/29 02:03:32;;;;;;;1.57;1.20;;;13.80;98.00;;;;;;5094555;28;20602;-67
2021/09/29 02:06:01;;;;;;;2.50;1.50;;;13.70;98.00;;;;;;5094497;28;20555;-66
2021/09/29 02:08:28;;;;;;;2.60;1.73;;;13.60;98.00;;;;;;5094159;28;20461;-66
2021/09/29 02:10:58;;;;;;;2.13;1.50;;;13.60;98.00;;;;;;5094326;28;20472;-66
2021/09/29 02:13:26;;;;;;;1.70;1.53;;;13.60;98.00;;;;;;5094387;28;20487;-66
2021/09/29 02:15:54;;;;;;;1.60;1.50;;;13.70;98.00;;;;;;5094135;28;20485;-66
2021/09/29 02:18:21;;;;;;;1.60;1.50;;;13.70;98.00;;;;;;5094153;28;20497;-66
2021/09/29 02:20:48;;;;;;;2.33;1.47;;;13.80;98.00;;;;;;5094181;28;20756;-66
2021/09/29 02:23:15;;;;;;;1.90;1.53;;;13.90;98.00;;;;;;5094045;28;20512;-66
2021/09/29 02:25:42;;;;;;;1.40;1.30;;;13.80;98.00;;;;;;5093883;28;20445;-65
2021/09/29 02:28:09;;;;;;;1.23;1.20;;;13.70;98.00;;;;;;5094042;28;20475;-66
2021/09/29 02:30:36;;;;;;;1.53;1.37;;;13.50;98.00;;;;;;5093895;28;20556;-66
2021/09/29 02:33:04;;;;;;;2.20;1.90;;;13.40;98.00;;;;;;5093968;28;20483;-67
2021/09/29 02:35:31;;;;;;;4.33;1.60;;;13.40;98.00;;;;;;5093943;28;20481;-66
2021/09/29 02:37:58;;;;;;;1.20;1.10;;;13.20;98.00;;;;;;5094105;28;21103;-66
2021/09/29 02:40:26;;;;;;;1.97;1.30;;;13.20;98.00;;;;;;5093779;28;21017;-67
2021/09/29 02:42:54;;;;;;;1.20;1.10;;;13.10;98.00;;;;;;5093886;28;20500;-66
2021/09/29 02:45:21;;;;;;;1.30;1.20;;;13.10;98.00;;;;;;5093565;28;20541;-67
2021/09/29 02:47:48;;;;;;;1.50;1.40;;;13.10;98.00;;;;;;5092926;28;20475;-66
2021/09/29 02:50:17;;;;;;;2.47;1.20;;;13.10;98.00;;;;;;5093417;28;20457;-66
2021/09/29 02:52:44;;;;;;;1.23;1.10;;;13.10;98.00;;;;;;5093104;28;20512;-66
2021/09/29 02:55:11;;;;;;;2.23;1.80;;;13.10;98.00;;;;;;5093423;28;20806;-66
2021/09/29 02:57:38;;;;;;;1.47;1.10;;;13.00;98.00;;;;;;5093451;28;20491;-67
2021/09/29 03:00:08;;;;;;;1.43;1.37;;;13.10;98.00;;;;;;5093851;28;20487;-66
2021/09/29 03:02:35;;;;;;;1.90;1.33;;;13.40;98.00;;;;;;5093913;28;20491;-66
2021/09/29 03:05:02;;;;;;;2.20;1.80;;;13.40;98.00;;;;;;5093236;28;20461;-66
2021/09/29 03:07:30;;;;;;;1.43;1.37;;;13.20;98.00;;;;;;5093048;28;20505;-67
2021/09/29 03:09:57;;;;;;;1.40;1.20;;;13.20;98.00;;;;;;5093119;28;20461;-66
2021/09/29 03:12:24;;;;;;;3.23;1.50;;;13.20;98.00;;;;;;5093103;28;20487;-67
2021/09/29 03:14:53;;;;;;;1.20;1.20;;;13.30;98.00;;;;;;5091824;28;20455;-66
2021/09/29 03:17:20;;;;;;;1.87;1.30;;;13.40;98.00;;;;;;5092635;28;20521;-67
2021/09/29 03:19:47;;;;;;;1.60;1.37;;;13.60;98.00;;;;;;5092885;28;20503;-66
2021/09/29 03:22:14;;;;;;;1.67;1.50;;;13.60;98.00;;;;;;5092874;28;20457;-66
2021/09/29 03:24:43;;;;;;;1.60;1.50;;;13.60;98.00;;;;;;5092945;28;20943;-67
2021/09/29 03:27:10;;;;;;;2.13;1.53;;;13.60;98.00;;;;;;5092988;28;20478;-66
2021/09/29 03:29:37;;;;;;;1.47;1.30;;;13.60;98.00;;;;;;5092762;28;20883;-66
2021/09/29 03:32:04;;;;;;;2.00;1.40;;;13.60;98.00;;;;;;5092577;28;20455;-66
2021/09/29 03:34:32;;;;;;;1.40;1.27;;;13.70;98.00;;;;;;5092658;28;20489;-66
2021/09/29 03:36:58;;;;;;;2.03;1.67;;;13.80;98.00;;;;;;5092595;28;20516;-66
2021/09/29 03:39:26;;;;;;;2.40;1.60;;;13.90;98.00;;;;;;5092664;28;20514;-66
2021/09/29 03:41:58;;;;;;;1.83;1.53;;;13.80;98.00;;;;;;5092684;28;20488;-67
2021/09/29 03:44:25;;;;;;;1.50;1.27;;;13.70;98.00;;;;;;5091690;28;20492;-66
2021/09/29 03:46:54;;;;;;;1.30;1.27;;;13.60;98.00;;;;;;5092648;28;20555;-67
2021/09/29 03:49:21;;;;;;;1.60;1.37;;;13.60;98.00;;;;;;5092490;28;20491;-66
2021/09/29 03:51:48;;;;;;;4.60;1.40;;;13.60;98.00;;;;;;5092471;28;20507;-66
2021/09/29 03:54:15;;;;;;;1.30;1.30;;;13.80;98.00;;;;;;5092454;28;20454;-66
2021/09/29 03:56:42;;;;;;;1.43;1.33;;;13.80;98.00;;;;;;5091347;28;20582;-66
2021/09/29 03:59:12;;;;;;;1.53;1.50;;;13.90;98.00;;;;;;5091378;28;20514;-67
2021/09/29 04:01:42;;;;;;;1.30;1.30;;;14.00;98.00;;;;;;5092298;28;20500;-66
2021/09/29 04:04:09;;;;;;;2.57;1.93;;;13.90;98.00;;;;;;5092144;28;20485;-66
2021/09/29 04:06:36;;;;;;;2.37;1.33;;;13.80;98.00;;;;;;5091762;28;20536;-66
2021/09/29 04:09:08;;;;;;;1.60;1.57;;;13.80;98.00;;;;;;5091886;28;20492;-67
2021/09/29 04:11:35;;;;;;;1.73;1.40;;;13.80;98.00;;;;;;5091908;28;20517;-66
2021/09/29 04:14:02;;;;;;;1.63;1.57;;;13.80;98.00;;;;;;5092067;28;20573;-66
2021/09/29 04:16:31;;;;;;;1.27;1.17;;;13.80;98.00;;;;;;5091981;28;20890;-67
2021/09/29 04:18:59;;;;;;;1.47;1.43;;;13.90;98.00;;;;;;5091732;28;20495;-67
2021/09/29 04:21:26;;;;;;;1.97;1.43;;;13.80;98.00;;;;;;5091894;28;20453;-66
2021/09/29 04:23:53;;;;;;;1.40;1.30;;;13.60;98.00;;;;;;5091810;28;20521;-67
2021/09/29 04:26:20;;;;;;;1.57;1.20;;;13.70;98.00;;;;;;5091648;28;20787;-66
2021/09/29 04:28:47;;;;;;;1.90;1.37;;;13.70;98.00;;;;;;5091662;28;20741;-66
2021/09/29 04:31:14;;;;;;;1.30;1.10;;;13.80;98.00;;;;;;5091757;28;20457;-67
2021/09/29 04:33:42;;;;;;;2.10;1.50;;;13.80;98.00;;;;;;5091431;28;20457;-67
2021/09/29 04:36:10;;;;;;;1.30;1.20;;;13.70;98.00;;;;;;5091798;28;21011;-66
2021/09/29 04:38:37;;;;;;;1.80;1.40;;;13.70;98.00;;;;;;5091382;28;20522;-67
2021/09/29 04:41:06;;;;;;;2.67;1.70;;;13.60;98.00;;;;;;5091531;28;20459;-67
2021/09/29 04:43:34;;;;;;;1.30;1.13;;;13.60;98.00;;;;;;5091306;28;20694;-67
2021/09/29 04:46:01;;;;;;;1.30;1.30;;;13.60;98.00;;;;;;5091554;28;20456;-67
2021/09/29 04:48:28;;;;;;;1.33;1.30;;;13.60;98.00;;;;;;5091430;28;20878;-68
2021/09/29 04:50:56;;;;;;;1.80;1.60;;;13.70;98.00;;;;;;5091352;28;20458;-67
2021/09/29 04:53:23;;;;;;;1.50;1.43;;;13.70;98.00;;;;;;5091026;28;20511;-68
2021/09/29 04:55:50;;;;;;;1.77;1.20;;;13.90;98.00;;;;;;5091406;28;20958;-68
2021/09/29 04:58:17;;;;;;;1.20;1.20;;;13.80;98.00;;;;;;5090911;28;20480;-67
2021/09/29 05:00:44;;;;;;;2.03;1.63;;;13.70;98.00;;;;;;5091216;28;20511;-67
2021/09/29 05:03:12;;;;;;;1.30;1.20;;;13.80;98.00;;;;;;5091230;28;20486;-67
2021/09/29 05:05:39;;;;;;;1.77;1.40;;;13.70;98.00;;;;;;5091254;28;20943;-68
2021/09/29 05:08:08;;;;;;;1.20;1.00;;;13.70;98.00;;;;;;5091005;28;20513;-67
2021/09/29 05:10:40;;;;;;;1.40;1.30;;;13.80;98.00;;;;;;5089463;28;20536;-67
2021/09/29 05:13:13;;;;;;;1.47;1.47;;;13.80;98.00;;;;;;5091085;28;20545;-67
2021/09/29 05:15:40;;;;;;;1.30;1.17;;;13.80;98.00;;;;;;5090060;28;20457;-66
2021/09/29 05:18:08;;;;;;;1.60;1.50;;;13.70;98.00;;;;;;5091054;28;20524;-68
2021/09/29 05:20:35;;;;;;;1.50;1.33;;;13.70;98.00;;;;;;5091138;28;20455;-68
2021/09/29 05:23:03;;;;;;;1.90;1.60;;;13.70;98.00;;;;;;5091117;28;20502;-67
2021/09/29 05:25:33;;;;;;;1.67;1.40;;;13.60;98.00;;;;;;5090973;28;20520;-67
2021/09/29 05:28:01;;;;;;;3.20;1.70;;;13.70;98.00;;;;;;5090894;28;20511;-67
2021/09/29 05:30:29;;;;;;;1.20;1.00;;;13.70;98.00;;;;;;5091020;28;20938;-66
2021/09/29 05:32:55;;;;;;;1.40;1.20;;;13.70;98.00;;;;;;5090916;28;20482;-67
2021/09/29 05:35:22;;;;;;;1.83;1.50;;;13.80;98.00;;;;;;5090917;28;20979;-68
2021/09/29 05:37:49;;;;;;;2.07;1.43;;;13.80;98.00;;;;;;5089502;28;20897;-68
2021/09/29 05:40:17;;;;;;;2.33;1.60;;;13.80;98.00;;;;;;5090679;28;20514;-66
2021/09/29 05:42:45;;;;;;;1.40;1.23;;;13.70;98.00;;;;;;5090857;28;20501;-68
2021/09/29 05:45:12;;;;;;;1.80;1.20;;;13.60;98.00;;;;;;5090685;28;20495;-67
2021/09/29 05:47:39;;;;;;;2.23;1.40;;;13.50;98.00;;;;;;5089338;28;20462;-67
2021/09/29 05:50:08;;;;;;;1.63;1.40;;;13.40;98.00;;;;;;5090667;28;20513;-67
2021/09/29 05:52:36;;;;;;;2.60;1.50;;;13.30;98.00;;;;;;5090762;28;20453;-67
2021/09/29 05:55:03;;;;;;;1.80;1.53;;;13.30;98.00;;;;;;5090480;28;20496;-69
2021/09/29 05:57:31;;;;;;;1.60;1.37;;;13.20;98.00;;;;;;5090681;28;20516;-67
2021/09/29 05:59:59;;;;;;;1.20;1.10;;;13.20;98.00;;;;;;5090543;28;21052;-67
2021/09/29 06:02:26;;;;;;;1.93;1.40;;;13.30;98.00;;;;;;5090579;28;20451;-67
2021/09/29 06:04:53;;;;;;;1.50;1.37;;;13.50;98.00;;;;;;5090271;28;20465;-67
2021/09/29 06:07:20;;;;;;;1.20;1.20;;;13.40;98.00;;;;;;5090698;28;20917;-66
2021/09/29 06:09:47;;;;;;;1.23;1.13;;;13.30;98.00;;;;;;5090604;28;20533;-67
2021/09/29 06:12:15;;;;;;;1.30;1.23;;;13.40;98.00;;;;;;5090528;28;20490;-66
2021/09/29 06:14:49;;;;;;;1.90;1.27;;;13.50;98.00;;;;;;5089147;28;20494;-67
2021/09/29 06:17:24;;;;;;;1.53;1.40;;;13.50;98.00;;;;;;5090547;28;20527;-67
2021/09/29 06:19:53;;;;;;;2.80;1.50;;;13.50;98.00;;;;;;5090267;28;20448;-68
2021/09/29 06:22:25;;;;;;;3.60;1.70;;;13.40;98.00;;;;;;5092488;28;20459;-66
2021/09/29 06:24:52;;;;;;;1.20;1.20;;;13.30;98.00;;;;;;5092791;28;20492;-67
2021/09/29 06:27:19;;;;;;;1.63;1.47;;;13.20;98.00;;;;;;5094022;28;20527;-67
2021/09/29 06:29:46;;;;;;;1.67;1.40;;;13.20;98.00;;;;;;5093935;28;20484;-67
2021/09/29 06:32:13;;;;;;;2.80;1.70;;;13.20;98.00;;;;;;5093985;28;20453;-71
2021/09/29 06:34:41;;;;;;;2.07;1.50;;;13.20;98.00;;;;;;5093820;28;20504;-66
2021/09/29 06:37:08;;;;;;;1.93;1.43;;;13.20;98.00;;;;;;5093942;28;20484;-67
2021/09/29 06:39:35;;;;;;;1.50;1.40;;;13.20;98.00;;;;;;5093939;28;20963;-66
2021/09/29 06:42:02;;;;;;;1.67;1.10;;;13.30;98.00;;;;;;5091161;28;20502;-69
2021/09/29 06:44:31;;;;;;;2.00;1.60;;;13.20;98.00;;;;;;5101844;28;20966;-67
2021/09/29 06:46:59;;;;;;;2.83;1.43;;;13.20;98.00;;;;;;5102250;28;20820;-69
2021/09/29 06:49:26;;;;;;;1.20;1.10;;;13.20;98.00;;;;;;5096702;28;20498;-70
2021/09/29 06:51:57;;;;;;;2.17;1.50;;;13.20;98.00;;;;;;5100939;28;20492;-68
2021/09/29 06:54:25;;;;;;;1.30;1.10;;;13.30;98.00;;;;;;5080410;28;20542;-70
2021/09/29 06:56:52;;;;;;;1.30;1.30;;;13.30;98.00;;;;;;5092442;28;20969;-69
2021/09/29 06:59:19;;;;;;;3.30;1.70;;;13.40;98.00;;;;;;5108180;28;20538;-69
2021/09/29 07:01:47;;;;;;;1.47;1.20;;;13.40;98.00;;;;;;5102059;28;20520;-69
2021/09/29 07:04:14;;;;;;;1.70;1.30;;;13.40;98.00;;;;;;5092026;28;20890;-69
2021/09/29 07:06:41;;;;;;;2.00;1.93;;;13.50;98.00;;;;;;5093226;28;20460;-68
2021/09/29 07:09:09;;;;;;;1.30;1.30;;;13.60;98.00;;;;;;5092960;28;20809;-70
2021/09/29 07:11:36;;;;;;;1.33;1.20;;;13.70;98.00;;;;;;5093146;28;20451;-69
2021/09/29 07:14:03;;;;;;;1.30;1.20;;;13.90;98.00;;;;;;5093232;28;20463;-69
2021/09/29 07:16:31;;;;;;;1.67;1.30;;;14.00;98.00;;;;;;5093030;28;20454;-69
2021/09/29 07:19:02;;;;;;;2.80;1.70;;;14.00;98.00;;;;;;5092799;28;20486;-70
2021/09/29 07:21:29;;;;;;;1.40;1.20;;;14.10;98.00;;;;;;5092934;28;20473;-68
2021/09/29 07:23:56;;;;;;;1.20;1.10;;;14.10;98.00;;;;;;5093005;28;20530;-71
2021/09/29 07:26:25;;;;;;;1.20;1.03;;;14.10;98.00;;;;;;5092882;28;20465;-67
2021/09/29 07:28:52;;;;;;;1.50;1.50;;;14.10;98.00;;;;;;5092874;28;20445;-70
2021/09/29 07:31:19;;;;;;;1.30;1.30;;;14.10;98.00;;;;;;5091658;28;20883;-70
2021/09/29 07:33:47;;;;;;;1.50;1.30;;;14.30;98.00;;;;;;5092464;28;20494;-71
2021/09/29 07:36:14;;;;;;;1.40;1.10;;;14.40;98.00;;;;;;5092632;28;20487;-70
2021/09/29 07:38:41;;;;;;;1.40;1.40;;;14.60;98.00;;;;;;5092744;28;20559;-70
2021/09/29 07:41:08;;;;;;;1.40;1.40;;;14.80;98.00;;;;;;5092660;28;20563;-70
2021/09/29 07:43:39;;;;;;;1.70;1.20;;;15.00;98.00;;;;;;5092490;28;20459;-71
2021/09/29 07:46:06;;;;;;;1.63;1.20;;;15.10;98.00;;;;;;5092487;28;20454;-70
2021/09/29 07:48:33;;;;;;;1.20;1.00;;;15.30;98.00;;;;;;5092659;28;20490;-70
2021/09/29 07:51:01;;;;;;;1.60;1.30;;;15.40;98.00;;;;;;5092382;28;20960;-70
2021/09/29 07:53:28;;;;;;;1.20;1.00;;;15.50;98.00;;;;;;5092420;28;20464;-70
2021/09/29 07:55:56;;;;;;;1.20;1.20;;;15.60;98.00;;;;;;5092316;28;20895;-71
2021/09/29 07:58:25;;;;;;;1.70;1.70;;;15.70;98.00;;;;;;5091092;28;20927;-71
2021/09/29 08:00:54;;;;;;;1.30;1.20;;;15.90;98.00;;;;;;5092287;28;20490;-71
2021/09/29 08:03:21;;;;;;;1.20;1.10;;;16.00;98.00;;;;;;5092441;28;20486;-72
2021/09/29 08:05:48;;;;;;;1.30;1.20;;;16.10;98.00;;;;;;5092462;28;20459;-70
2021/09/29 08:08:15;;;;;;;1.27;1.23;;;16.20;98.00;;;;;;5090884;28;20477;-71
2021/09/29 08:10:42;;;;;;;1.40;1.20;;;16.30;98.00;;;;;;5091983;28;20455;-71
2021/09/29 08:13:09;;;;;;;1.87;1.40;;;16.40;98.00;;;;;;5092166;28;20543;-71
2021/09/29 08:15:37;;;;;;;1.60;1.20;;;16.50;98.00;;;;;;5091911;28;20463;-70
2021/09/29 08:18:06;;;;;;;1.60;1.33;;;16.40;98.00;;;;;;5091263;28;20483;-70
2021/09/29 08:20:36;;;;;;;1.63;1.30;;;16.30;98.00;;;;;;5073992;28;20981;-70
2021/09/29 08:23:06;;;;;;;1.40;1.10;;;16.40;98.00;;;;;;5091924;28;20457;-71
2021/09/29 08:28:25;;;;;;;1.20;1.10;;;16.60;98.00;;;;;;5078245;28;20995;-71
2021/09/29 08:31:00;;;;;;;1.20;1.13;;;16.60;98.00;;;;;;5091700;28;20533;-70
2021/09/29 08:36:22;;;;;;;1.20;1.10;;;16.80;98.00;;;;;;5090701;28;20542;-71
2021/09/29 08:38:52;;;;;;;1.20;1.10;;;17.00;98.00;;;;;;5091411;28;20485;-70
2021/09/29 08:41:36;;;;;;;1.20;1.20;;;17.10;98.00;;;;;;5091536;28;20464;-70
2021/09/29 08:44:07;;;;;;;1.60;1.30;;;17.30;98.00;;;;;;5090898;28;21026;-71
2021/09/29 08:46:45;;;;;;;1.20;1.00;;;17.40;98.00;;;;;;5091347;28;21019;-71
2021/09/29 08:49:19;;;;;;;1.30;1.27;;;17.60;98.00;;;;;;5091378;28;20460;-71
2021/09/29 08:54:57;;;;;;;1.57;1.30;;;18.00;98.00;;;;;;5077776;28;20455;-70
2021/09/29 09:16:44;;;;;;;1.30;1.10;;;19.00;98.00;;;;;;5091249;28;20447;-71
2021/09/29 09:19:13;;;;;;;1.20;1.10;;;19.30;98.00;;;;;;5091054;28;20582;-71
2021/09/29 09:21:52;;;;;;;1.30;1.30;;;19.30;98.00;;;;;;5091159;28;20942;-71
2021/09/29 09:24:20;;;;;;;1.20;1.10;;;19.20;98.00;;;;;;5091235;28;20460;-71
2021/09/29 09:26:57;;;;;;;1.30;1.00;;;19.30;98.00;;;;;;5091289;28;21019;-71
2021/09/29 09:29:25;;;;;;;1.50;1.20;;;19.20;96.20;;;;;;5091010;28;20455;-71
2021/09/29 09:31:53;;;;;;;1.40;1.30;;;19.20;96.00;;;;;;5091184;28;20569;-70
2021/09/29 09:34:20;;;;;;;1.30;1.20;;;19.40;97.00;;;;;;5090705;28;20950;-71
2021/09/29 09:36:50;;;;;;;1.40;1.17;;;19.30;93.80;;;;;;5090858;28;20521;-71
2021/09/29 09:39:21;;;;;;;1.97;1.60;;;19.50;96.00;;;;;;5090593;28;20541;-71
2021/09/29 09:41:51;;;;;;;1.43;1.10;;;19.70;96.10;;;;;;5090967;28;20452;-70
2021/09/29 09:44:23;;;;;;;1.30;1.23;;;19.80;94.30;;;;;;5089923;28;20456;-71
2021/09/29 09:47:03;;;;;;;1.40;1.10;;;19.90;93.10;;;;;;5090823;28;20509;-72
2021/09/29 09:49:30;;;;;;;1.20;1.10;;;20.20;93.40;;;;;;5089479;28;20505;-72
2021/09/29 09:52:02;;;;;;;1.20;1.10;;;20.20;93.30;;;;;;5090536;28;20501;-73
2021/09/29 09:54:36;;;;;;;1.40;1.20;;;20.40;93.70;;;;;;5090708;28;20512;-71
2021/09/29 09:57:10;;;;;;;1.30;1.30;;;20.30;91.50;;;;;;5092343;28;20460;-72
2021/09/29 09:59:37;;;;;;;1.20;1.20;;;20.40;92.00;;;;;;5094292;28;20827;-70
2021/09/29 10:02:04;;;;;;;1.20;1.10;;;20.40;93.60;;;;;;5093156;28;20490;-71
2021/09/29 10:04:32;;;;;;;1.40;1.40;;;20.50;93.20;;;;;;5094538;28;20500;-71
2021/09/29 10:07:01;;;;;;;1.40;1.20;;;20.70;94.00;;;;;;5093208;28;20456;-70
2021/09/29 10:09:37;;;;;;;1.30;1.23;;;20.80;93.40;;;;;;5094366;28;20478;-72
2021/09/29 10:12:19;;;;;;;1.43;1.20;;;20.80;93.30;;;;;;5094238;28;20494;-72
2021/09/29 10:15:01;;;;;;;1.40;1.23;;;20.60;91.50;;;;;;5093072;28;20452;-70
2021/09/29 10:23:24;;;;;;;1.70;1.20;;;19.90;93.40;;;;;;5092921;28;20439;-72
2021/09/29 10:28:43;;;;;;;1.20;1.00;;;19.60;92.80;;;;;;5091857;28;20459;-71
2021/09/29 10:31:23;;;;;;;2.10;1.27;;;19.50;94.50;;;;;;5094194;28;20538;-70
2021/09/29 10:33:58;;;;;;;1.30;1.10;;;19.40;93.90;;;;;;5093869;28;20455;-71
2021/09/29 10:36:42;;;;;;;1.50;1.10;;;19.40;94.50;;;;;;5093874;28;20451;-70
2021/09/29 10:42:04;;;;;;;1.63;1.53;;;19.90;93.00;;;;;;5094100;28;20570;-71
2021/09/29 10:45:04;;;;;;;1.30;1.20;;;20.60;92.20;;;;;;5092768;28;20459;-73
2021/09/29 10:47:39;;;;;;;1.30;1.23;;;21.10;90.20;;;;;;5094076;28;20862;-71
2021/09/29 10:50:39;;;;;;;1.20;1.13;;;21.80;88.00;;;;;;5093660;28;20528;-71
2021/09/29 11:04:41;;;;;;;1.20;1.20;;;21.00;90.00;;;;;;5058832;28;20452;-71
2021/09/29 11:07:28;;;;;;;1.20;1.13;;;20.80;88.80;;;;;;5092729;28;20487;-72
2021/09/29 11:29:39;;;;;;;1.50;1.20;;;19.50;93.90;;;;;;5091940;28;20483;-72
2021/09/29 11:32:18;;;;;;;1.20;1.13;;;19.60;95.90;;;;;;5092956;28;20513;-72
2021/09/29 11:34:45;;;;;;;1.30;1.20;;;19.80;94.30;;;;;;5093162;28;20451;-71
2021/09/29 12:08:06;;;;;;;1.30;1.23;;;21.10;89.60;;;;;;5092110;28;20472;-71
2021/09/29 12:10:37;;;;;;;1.37;1.23;;;21.10;89.90;;;;;;5090771;28;20538;-73
2021/09/29 12:13:07;;;;;;;1.20;1.10;;;21.00;89.40;;;;;;5092022;28;20462;-72
2021/09/29 12:15:44;;;;;;;1.20;1.20;;;21.20;89.40;;;;;;5091873;28;20460;-72
2021/09/29 12:18:13;;;;;;;1.20;1.10;;;21.00;87.60;;;;;;5091771;28;20579;-72
2021/09/29 12:20:51;;;;;;;1.27;1.10;;;20.90;89.00;;;;;;5091002;28;20461;-73
2021/09/29 12:23:19;;;;;;;2.33;1.40;;;20.90;88.10;;;;;;5091850;28;20540;-72
2021/09/29 12:25:52;;;;;;;3.00;1.67;;;20.90;88.30;;;;;;5091492;28;20452;-73
2021/09/29 12:28:30;;;;;;;1.20;1.10;;;20.80;89.80;;;;;;5091508;28;20455;-72
2021/09/29 12:31:20;;;;;;;1.20;1.10;;;20.90;89.50;;;;;;5091710;28;20814;-72
2021/09/29 12:33:55;;;;;;;1.20;1.00;;;20.80;89.30;;;;;;5091561;28;20455;-72
2021/09/29 12:36:28;;;;;;;1.20;1.10;;;20.80;89.90;;;;;;5091751;28;20535;-71
2021/09/29 12:38:56;;;;;;;1.30;1.10;;;20.80;87.30;;;;;;5091622;28;20486;-72
2021/09/29 12:41:27;;;;;;;1.33;1.13;;;20.80;87.90;;;;;;5091833;28;20486;-72
2021/09/29 12:44:01;;;;;;;1.20;1.00;;;20.90;89.20;;;;;;5091836;28;20874;-72
2021/09/29 12:46:35;;;;;;;1.20;1.10;;;21.00;87.70;;;;;;5091847;28;20456;-71
2021/09/29 12:49:10;;;;;;;1.27;1.10;;;21.10;87.40;;;;;;5091702;28;20478;-69
2021/09/29 12:51:41;;;;;;;1.20;1.10;;;21.40;86.40;;;;;;5091316;28;20477;-72
2021/09/29 12:54:10;;;;;;;1.20;1.00;;;21.50;84.80;;;;;;5091188;28;20451;-72
2021/09/29 12:56:37;;;;;;;1.20;1.20;;;21.60;86.20;;;;;;5091198;28;20466;-73
2021/09/29 12:59:04;;;;;;;1.30;1.17;;;21.90;86.50;;;;;;5091120;28;20551;-72
2021/09/29 13:01:31;;;;;;;1.20;1.20;;;22.00;84.40;;;;;;5091240;28;20464;-73
2021/09/29 13:03:58;;;;;;;1.20;1.10;;;21.80;84.40;;;;;;5091115;28;20977;-72
2021/09/29 13:06:26;;;;;;;1.33;1.20;;;21.60;84.90;;;;;;5090940;28;20504;-72
2021/09/29 13:08:53;;;;;;;1.20;1.17;;;21.50;85.20;;;;;;5090925;28;20509;-72
2021/09/29 13:11:20;;;;;;;1.20;1.20;;;21.40;85.70;;;;;;5090935;28;20455;-73
2021/09/29 13:13:47;;;;;;;1.60;1.30;;;21.30;87.70;;;;;;5091126;28;20456;-74
2021/09/29 13:16:14;;;;;;;1.20;1.10;;;21.10;86.60;;;;;;5090812;28;20941;-72
2021/09/29 13:18:47;;;;;;;1.20;1.10;;;20.80;87.40;;;;;;5090896;28;20487;-70
2021/09/29 13:21:17;;;;;;;1.63;1.40;;;20.70;87.70;;;;;;5091167;28;20459;-71
2021/09/29 13:23:51;;;;;;;1.20;1.20;;;20.60;89.10;;;;;;5091417;28;20456;-72
2021/09/29 13:26:34;;;;;;;1.20;1.10;;;20.60;88.70;;;;;;5089904;28;20452;-73
2021/09/29 13:37:18;;;;;;;1.40;1.20;;;20.30;91.30;;;;;;5093131;28;20443;-72
2021/09/29 13:39:47;;;;;;;1.20;1.10;;;20.20;90.80;;;;;;5094969;28;20481;-72
2021/09/29 13:42:15;;;;;;;1.30;1.20;;;20.20;91.30;;;;;;5094827;28;20551;-71
2021/09/29 13:44:42;;;;;;;3.60;2.20;;;20.10;91.60;;;;;;5094856;28;20468;-72
2021/09/29 13:47:09;;;;;;;1.20;1.10;;;20.10;92.20;;;;;;5094836;28;20517;-71
2021/09/29 13:49:38;;;;;;;1.50;1.40;;;20.10;92.50;;;;;;5093538;28;20444;-72
2021/09/29 13:52:11;;;;;;;1.20;1.20;;;19.90;92.80;;;;;;5094842;28;20448;-72
2021/09/29 13:54:39;;;;;;;2.43;1.33;;;19.80;92.10;;;;;;5093484;28;20523;-72
2021/09/29 13:57:14;;;;;;;1.20;1.10;;;19.70;94.10;;;;;;5094822;28;20456;-72
2021/09/29 13:59:50;;;;;;;1.20;1.00;;;19.50;93.00;;;;;;5093272;28;20907;-71
2021/09/29 14:29:48;;;;;;;1.20;1.00;;;17.40;98.00;;;;;;5094157;28;20446;-72
2021/09/29 14:32:19;;;;;;;1.20;1.20;;;17.30;98.00;;;;;;5092944;28;20455;-71
2021/09/29 14:34:46;;;;;;;1.30;1.10;;;17.40;98.00;;;;;;5094092;28;20467;-71
2021/09/29 14:37:14;;;;;;;1.20;1.10;;;17.30;98.00;;;;;;5094081;28;20505;-72
2021/09/29 14:39:43;;;;;;;1.53;1.10;;;17.30;98.00;;;;;;5094011;28;20488;-71
2021/09/29 14:42:10;;;;;;;1.30;1.10;;;17.20;98.00;;;;;;5093113;28;20529;-72
2021/09/29 14:44:37;;;;;;;1.30;1.10;;;16.90;98.00;;;;;;5093961;28;20525;-72
2021/09/29 14:47:10;;;;;;;1.20;1.10;;;16.90;98.00;;;;;;5094143;28;20462;-71
2021/09/29 14:49:38;;;;;;;1.20;1.10;;;16.60;98.00;;;;;;5094222;28;20467;-71
2021/09/29 14:52:06;;;;;;;1.20;1.03;;;16.30;98.00;;;;;;5093935;28;20454;-72
2021/09/29 14:54:34;;;;;;;1.20;1.10;;;16.20;98.00;;;;;;5093851;28;20471;-70
2021/09/29 14:57:04;;;;;;;1.20;1.00;;;16.10;98.00;;;;;;5093627;28;20502;-71
2021/09/29 14:59:33;;;;;;;1.20;1.10;;;16.00;98.00;;;;;;5093260;28;20487;-70
2021/09/29 15:02:00;;;;;;;1.20;1.00;;;15.90;98.00;;;;;;5093473;28;20450;-71
2021/09/29 15:04:28;;;;;;;1.20;1.00;;;15.40;98.00;;;;;;5093324;28;20457;-71
2021/09/29 15:06:55;;;;;;;1.20;1.10;;;15.20;98.00;;;;;;5093515;28;20508;-72
2021/09/29 15:09:22;;;;;;;1.20;1.10;;;14.90;98.00;;;;;;5091955;28;20522;-71
2021/09/29 15:11:50;;;;;;;1.20;1.00;;;14.90;98.00;;;;;;5093388;28;20484;-72
2021/09/29 15:14:23;;;;;;;1.20;1.00;;;14.70;98.00;;;;;;5092026;28;20512;-71
2021/09/29 15:16:56;;;;;;;1.20;1.00;;;14.70;98.00;;;;;;5093227;28;20471;-71